createdAt,value
2022-10-08T00:01:42.876Z,100203.81
2022-10-08T00:04:13.229Z,100202.13
2022-10-08T00:06:41.347Z,100203.09
2022-10-08T00:09:09.398Z,100204.09
2022-10-08T00:11:40.229Z,100217.19
2022-10-08T00:14:09.515Z,100208.50
2022-10-08T00:16:41.015Z,100219.16
2022-10-08T00:19:12.856Z,100217.59
2022-10-08T00:21:43.167Z,100219.56
2022-10-08T00:24:14.656Z,100212.66
2022-10-08T00:26:44.308Z,100216.28
2022-10-08T00:29:15.116Z,100208.56
2022-10-08T00:31:46.561Z,100218.25
2022-10-08T00:34:16.535Z,100225.34
2022-10-08T00:36:44.725Z,100234.16
2022-10-08T00:39:15.568Z,100234.31
2022-10-08T00:41:46.166Z,100235.28
2022-10-08T00:44:54.352Z,100237.94
2022-10-08T00:47:36.356Z,100238.94
2022-10-08T00:50:07.796Z,100239.81
2022-10-08T00:52:40.456Z,100238.88
2022-10-08T00:55:10.019Z,100239.66
2022-10-08T00:57:39.937Z,100236.13
2022-10-08T01:00:11.537Z,100240.47
2022-10-08T01:02:40.996Z,100244.78
2022-10-08T01:05:10.326Z,100253.50
2022-10-08T01:07:46.388Z,100253.56
2022-10-08T01:10:25.544Z,100257.94
2022-10-08T01:13:06.937Z,100261.53
2022-10-08T01:15:41.840Z,100265.94
2022-10-08T01:18:20.266Z,100265.94
2022-10-08T01:20:58.636Z,100258.13
2022-10-08T01:24:00.675Z,100264.94
2022-10-08T01:26:54.077Z,100258.84
2022-10-08T01:29:29.578Z,100268.44
2022-10-08T01:32:03.526Z,100268.44
2022-10-08T01:34:37.596Z,100268.56
2022-10-08T01:37:08.858Z,100263.38
2022-10-08T01:39:39.878Z,100265.13
2022-10-08T01:42:11.055Z,100268.66
2022-10-08T01:44:46.377Z,100273.00
2022-10-08T01:47:19.386Z,100261.66
2022-10-08T01:49:54.167Z,100264.28
2022-10-08T01:52:27.557Z,100273.13
2022-10-08T01:55:01.539Z,100275.03
2022-10-08T01:57:32.184Z,100264.72
2022-10-08T02:00:05.850Z,100268.34
2022-10-08T02:02:41.118Z,100266.69
2022-10-08T02:05:09.718Z,100264.09
2022-10-08T02:07:41.398Z,100269.22
2022-10-08T02:10:11.837Z,100271.81
2022-10-08T02:12:40.988Z,100275.38
2022-10-08T02:15:15.246Z,100278.13
2022-10-08T02:17:54.806Z,100279.97
2022-10-08T02:20:30.131Z,100279.97
2022-10-08T02:23:02.958Z,100286.91
2022-10-08T02:25:38.156Z,100284.22
2022-10-08T02:28:11.617Z,100286.84
2022-10-08T02:30:44.721Z,100294.69
2022-10-08T02:33:16.776Z,100289.38
2022-10-08T02:35:48.716Z,100293.66
2022-10-08T02:38:22.256Z,100286.59
2022-10-08T02:40:54.596Z,100289.16
2022-10-08T02:43:27.326Z,100294.41
2022-10-08T02:46:01.370Z,100292.75
2022-10-08T02:48:31.918Z,100304.16
2022-10-08T02:51:04.426Z,100303.38
2022-10-08T02:53:33.894Z,100303.38
2022-10-08T02:56:10.626Z,100313.81
2022-10-08T02:58:39.058Z,100303.38
2022-10-08T03:01:12.990Z,100309.53
2022-10-08T03:03:46.614Z,100314.91
2022-10-08T03:06:16.406Z,100314.00
2022-10-08T03:08:49.135Z,100308.84
2022-10-08T03:11:18.156Z,100308.03
2022-10-08T03:13:49.415Z,100306.38
2022-10-08T03:16:23.656Z,100303.84
2022-10-08T03:18:53.629Z,100305.53
2022-10-08T03:21:21.828Z,100304.59
2022-10-08T03:23:50.307Z,100312.47
2022-10-08T03:26:18.989Z,100303.81
2022-10-08T03:28:47.304Z,100313.44
2022-10-08T03:31:15.552Z,100308.16
2022-10-08T03:33:45.045Z,100305.44
2022-10-08T03:36:13.069Z,100306.38
2022-10-08T03:38:41.168Z,100318.53
2022-10-08T03:41:10.278Z,100317.66
2022-10-08T03:43:38.380Z,100315.81
2022-10-08T03:46:07.098Z,100322.72
2022-10-08T03:48:35.546Z,100322.63
2022-10-08T03:51:07.848Z,100337.44
2022-10-08T03:53:37.816Z,100344.31
2022-10-08T03:56:07.606Z,100344.16
2022-10-08T03:58:36.136Z,100344.81
2022-10-08T04:01:06.527Z,100350.88
2022-10-08T04:03:35.115Z,100352.59
2022-10-08T04:06:04.656Z,100354.31
2022-10-08T04:08:33.856Z,100357.75
2022-10-08T04:11:04.194Z,100357.59
2022-10-08T04:13:32.776Z,100360.97
2022-10-08T04:16:02.606Z,100365.22
2022-10-08T04:18:31.207Z,100368.75
2022-10-08T04:21:00.098Z,100376.59
2022-10-08T04:23:31.856Z,100379.22
2022-10-08T04:26:00.102Z,100387.91
2022-10-08T04:28:28.337Z,100387.91
2022-10-08T04:30:58.588Z,100400.19
2022-10-08T04:33:27.206Z,100395.03
2022-10-08T04:35:59.950Z,100385.41
2022-10-08T04:38:29.776Z,100398.53
2022-10-08T04:41:05.367Z,100403.00
2022-10-08T04:43:33.713Z,100407.38
2022-10-08T04:46:01.887Z,100410.00
2022-10-08T04:48:30.526Z,100403.75
2022-10-08T04:50:59.088Z,100403.75
2022-10-08T04:53:27.596Z,100409.00
2022-10-08T04:55:57.838Z,100413.38
2022-10-08T04:58:27.006Z,100418.66
2022-10-08T05:00:55.186Z,100415.16
2022-10-08T05:03:23.335Z,100426.53
2022-10-08T05:05:51.377Z,100433.59
2022-10-08T05:08:19.457Z,100436.25
2022-10-08T05:10:49.923Z,100434.53
2022-10-08T05:13:19.365Z,100436.38
2022-10-08T05:15:48.614Z,100447.78
2022-10-08T05:18:16.978Z,100453.03
2022-10-08T05:20:45.130Z,100450.47
2022-10-08T05:23:13.301Z,100452.31
2022-10-08T05:25:41.370Z,100459.31
2022-10-08T05:28:09.545Z,100467.25
2022-10-08T05:30:39.131Z,100462.91
2022-10-08T05:33:07.251Z,100461.16
2022-10-08T05:35:38.505Z,100462.81
2022-10-08T05:38:06.830Z,100461.00
2022-10-08T05:40:35.041Z,100461.91
2022-10-08T05:43:03.217Z,100470.69
2022-10-08T05:45:31.390Z,100474.28
2022-10-08T05:48:01.010Z,100479.63
2022-10-08T05:50:29.283Z,100474.44
2022-10-08T05:52:57.650Z,100478.00
2022-10-08T05:55:25.821Z,100479.84
2022-10-08T05:57:54.302Z,100487.72
2022-10-08T06:00:22.360Z,100485.19
2022-10-08T06:02:51.046Z,100485.16
2022-10-08T06:05:20.659Z,100489.59
2022-10-08T06:07:48.768Z,100496.56
2022-10-08T06:10:16.950Z,100491.31
2022-10-08T06:12:45.372Z,100497.53
2022-10-08T06:15:13.671Z,100499.28
2022-10-08T06:17:41.800Z,100509.84
2022-10-08T06:20:10.382Z,100517.72
2022-10-08T06:22:39.851Z,100516.91
2022-10-08T06:25:08.921Z,100523.94
2022-10-08T06:27:36.949Z,100523.06
2022-10-08T06:30:05.549Z,100528.28
2022-10-08T06:32:33.714Z,100530.03
2022-10-08T06:35:01.960Z,100534.44
2022-10-08T06:37:30.070Z,100542.28
2022-10-08T06:39:59.550Z,100544.97
2022-10-08T06:42:27.638Z,100549.34
2022-10-08T06:45:01.384Z,100551.91
2022-10-08T06:47:30.681Z,100558.94
2022-10-08T06:49:58.810Z,100565.06
2022-10-08T06:52:26.991Z,100565.97
2022-10-08T06:54:55.430Z,100569.44
2022-10-08T06:57:25.160Z,100569.44
2022-10-08T06:59:54.620Z,100575.50
2022-10-08T07:02:22.783Z,100568.47
2022-10-08T07:04:50.959Z,100577.97
2022-10-08T07:07:19.586Z,100576.19
2022-10-08T07:09:47.751Z,100575.22
2022-10-08T07:12:15.868Z,100575.19
2022-10-08T07:14:45.595Z,100584.72
2022-10-08T07:17:13.729Z,100593.38
2022-10-08T07:19:41.840Z,100585.44
2022-10-08T07:22:09.986Z,100595.81
2022-10-08T07:24:38.179Z,100600.88
2022-10-08T07:27:06.367Z,100599.91
2022-10-08T07:29:34.461Z,100599.78
2022-10-08T07:32:04.071Z,100613.66
2022-10-08T07:34:32.230Z,100610.97
2022-10-08T07:37:00.400Z,100612.69
2022-10-08T07:39:28.700Z,100627.47
2022-10-08T07:41:57.090Z,100622.19
2022-10-08T07:44:25.168Z,100627.31
2022-10-08T07:46:54.190Z,100635.91
2022-10-08T07:49:23.561Z,100634.94
2022-10-08T07:51:51.880Z,100639.19
2022-10-08T07:54:21.230Z,100639.16
2022-10-08T07:56:49.529Z,100636.41
2022-10-08T07:59:17.646Z,100637.16
2022-10-08T08:01:45.910Z,100643.09
2022-10-08T08:04:14.723Z,100649.03
2022-10-08T08:06:45.781Z,100654.13
2022-10-08T08:09:14.957Z,100652.28
2022-10-08T08:11:43.320Z,100651.19
2022-10-08T08:14:11.510Z,100658.97
2022-10-08T08:16:40.358Z,100669.41
2022-10-08T08:19:08.621Z,100671.06
2022-10-08T08:21:39.261Z,100672.69
2022-10-08T08:24:11.169Z,100666.34
2022-10-08T08:26:41.470Z,100668.00
2022-10-08T08:29:11.630Z,100667.81
2022-10-08T08:31:43.500Z,100665.06
2022-10-08T08:34:14.632Z,100666.66
2022-10-08T08:36:46.126Z,100670.09
2022-10-08T08:39:18.511Z,100678.78
2022-10-08T08:41:56.770Z,100676.13
2022-10-08T08:44:26.740Z,100684.78
2022-10-08T08:46:58.230Z,100689.06
2022-10-08T08:49:31.659Z,100689.63
2022-10-08T08:52:02.254Z,100690.25
2022-10-08T08:54:32.142Z,100691.78
2022-10-08T08:57:12.249Z,100693.56
2022-10-08T08:59:45.503Z,100702.88
2022-10-08T09:02:21.000Z,100708.78
2022-10-08T09:04:54.720Z,100705.06
2022-10-08T09:07:25.972Z,100714.66
2022-10-08T09:09:59.049Z,100719.88
2022-10-08T09:12:34.203Z,100717.91
2022-10-08T09:15:04.174Z,100715.00
2022-10-08T09:17:34.837Z,100715.56
2022-10-08T09:20:03.559Z,100716.78
2022-10-08T09:22:36.441Z,100707.81
2022-10-08T09:25:08.059Z,100714.56
2022-10-08T09:27:56.169Z,100715.31
2022-10-08T09:30:32.552Z,100722.22
2022-10-08T09:33:03.391Z,100723.69
2022-10-08T09:35:34.031Z,100732.06
2022-10-08T09:38:05.876Z,100720.50
2022-10-08T09:40:35.830Z,100724.97
2022-10-08T09:43:14.811Z,100723.06
2022-10-08T09:45:45.360Z,100720.69
2022-10-08T09:48:22.210Z,100729.94
2022-10-08T09:50:56.059Z,100729.53
2022-10-08T09:53:27.231Z,100733.81
2022-10-08T09:56:00.443Z,100738.09
2022-10-08T09:58:32.110Z,100734.28
2022-10-08T10:01:06.010Z,100734.56
2022-10-08T10:03:36.527Z,100736.03
2022-10-08T10:06:04.960Z,100751.06
2022-10-08T10:08:56.044Z,100745.59
2022-10-08T10:11:32.779Z,100734.06
2022-10-08T10:14:07.741Z,100732.34
2022-10-08T10:16:40.426Z,100732.09
2022-10-08T10:19:16.220Z,100730.13
2022-10-08T10:21:52.720Z,100730.13
2022-10-08T10:24:31.280Z,100728.63
2022-10-08T10:27:08.721Z,100728.63
2022-10-08T10:29:48.570Z,100731.91
2022-10-08T10:32:23.832Z,100731.78
2022-10-08T10:35:00.689Z,100736.91
2022-10-08T10:37:37.000Z,100738.34
2022-10-08T10:40:23.212Z,100734.38
2022-10-08T10:43:00.839Z,100735.75
2022-10-08T10:45:35.144Z,100733.09
2022-10-08T10:48:05.122Z,100731.66
2022-10-08T10:50:40.870Z,100737.16
2022-10-08T10:53:20.210Z,100723.41
2022-10-08T10:55:58.571Z,100719.50
2022-10-08T10:58:39.351Z,100725.47
2022-10-08T11:01:22.487Z,100727.56
2022-10-08T11:04:03.719Z,100720.34
2022-10-08T11:06:52.853Z,100731.09
2022-10-08T11:09:33.137Z,100732.81
2022-10-08T11:12:11.080Z,100743.25
2022-10-08T11:14:52.019Z,100745.41
2022-10-08T11:17:36.140Z,100740.09
2022-10-08T11:20:23.520Z,100742.81
2022-10-08T11:23:01.479Z,100740.88
2022-10-08T11:25:55.245Z,100740.28
2022-10-08T11:28:36.884Z,100747.28
2022-10-08T11:31:19.245Z,100736.56
2022-10-08T11:33:48.640Z,100742.78
2022-10-08T11:36:29.248Z,100740.88
2022-10-08T11:39:11.643Z,100739.50
2022-10-08T11:41:47.502Z,100733.41
2022-10-08T11:44:17.687Z,100737.19
2022-10-08T11:46:47.070Z,100727.91
2022-10-08T11:49:52.499Z,100719.56
2022-10-08T11:52:20.700Z,100721.31
2022-10-08T11:55:10.309Z,100724.16
2022-10-08T11:58:06.056Z,100724.22
2022-10-08T12:00:46.279Z,100727.28
2022-10-08T12:03:30.249Z,100725.38
2022-10-08T12:06:01.100Z,100720.94
2022-10-08T12:08:52.779Z,100726.03
2022-10-08T12:11:54.079Z,100721.47
2022-10-08T12:14:32.879Z,100725.56
2022-10-08T12:17:19.809Z,100724.47
2022-10-08T12:20:19.922Z,100727.78
2022-10-08T12:23:07.720Z,100726.94
2022-10-08T12:25:39.650Z,100729.72
2022-10-08T12:28:45.040Z,100717.41
2022-10-08T12:31:32.542Z,100716.56
2022-10-08T12:34:04.231Z,100721.13
2022-10-08T12:36:43.601Z,100717.59
2022-10-08T12:39:19.790Z,100721.28
2022-10-08T12:41:58.577Z,100711.13
2022-10-08T12:44:40.699Z,100713.69
2022-10-08T12:47:17.460Z,100708.06
2022-10-08T12:49:51.084Z,100711.88
2022-10-08T12:52:20.719Z,100713.47
2022-10-08T12:54:51.959Z,100711.31
2022-10-08T12:57:23.819Z,100713.75
2022-10-08T12:59:52.521Z,100710.78
2022-10-08T13:02:28.161Z,100709.47
2022-10-08T13:04:56.369Z,100713.88
2022-10-08T13:07:28.923Z,100708.25
2022-10-08T13:09:59.107Z,100704.34
2022-10-08T13:12:27.638Z,100707.13
2022-10-08T13:15:05.833Z,100702.84
2022-10-08T13:17:36.119Z,100705.81
2022-10-08T13:20:08.980Z,100699.38
2022-10-08T13:22:38.970Z,100705.47
2022-10-08T13:25:27.820Z,100712.44
2022-10-08T13:28:11.293Z,100707.91
2022-10-08T13:30:39.910Z,100709.28
2022-10-08T13:33:16.419Z,100706.63
2022-10-08T13:35:51.350Z,100707.66
2022-10-08T13:38:24.550Z,100693.94
2022-10-08T13:40:55.538Z,100699.75
2022-10-08T13:43:25.409Z,100693.63
2022-10-08T13:45:53.618Z,100693.44
2022-10-08T13:48:21.829Z,100703.72
2022-10-08T13:50:52.099Z,100691.59
2022-10-08T13:53:22.989Z,100693.31
2022-10-08T13:55:51.859Z,100693.13
2022-10-08T13:58:21.448Z,100687.97
2022-10-08T14:00:51.034Z,100690.69
2022-10-08T14:03:19.318Z,100684.81
2022-10-08T14:05:49.256Z,100682.00
2022-10-08T14:08:20.600Z,100693.34
2022-10-08T14:10:49.080Z,100684.91
2022-10-08T14:13:17.550Z,100682.81
2022-10-08T14:15:45.663Z,100683.38
2022-10-08T14:18:15.099Z,100684.63
2022-10-08T14:20:43.690Z,100680.66
2022-10-08T14:23:14.205Z,100678.16
2022-10-08T14:25:42.319Z,100674.97
2022-10-08T14:28:10.449Z,100675.91
2022-10-08T14:30:38.629Z,100678.84
2022-10-08T14:33:11.199Z,100678.34
2022-10-08T14:35:41.475Z,100675.03
2022-10-08T14:38:09.780Z,100671.44
2022-10-08T14:40:39.004Z,100674.09
2022-10-08T14:43:07.119Z,100671.25
2022-10-08T14:45:35.381Z,100669.72
2022-10-08T14:48:03.819Z,100667.47
2022-10-08T14:50:31.979Z,100664.47
2022-10-08T14:53:01.401Z,100655.97
2022-10-08T14:55:29.579Z,100661.63
2022-10-08T14:57:57.599Z,100665.41
2022-10-08T15:00:25.745Z,100661.09
2022-10-08T15:02:53.792Z,100656.06
2022-10-08T15:05:21.947Z,100660.66
2022-10-08T15:07:50.483Z,100667.78
2022-10-08T15:10:20.119Z,100657.19
2022-10-08T15:12:48.476Z,100662.75
2022-10-08T15:15:19.778Z,100661.28
2022-10-08T15:17:48.677Z,100658.00
2022-10-08T15:20:17.350Z,100660.75
2022-10-08T15:22:45.840Z,100657.66
2022-10-08T15:25:14.680Z,100665.34
2022-10-08T15:27:44.360Z,100658.16
2022-10-08T15:30:13.700Z,100656.78
2022-10-08T15:32:42.221Z,100657.78
2022-10-08T15:35:10.530Z,100655.06
2022-10-08T15:37:39.000Z,100646.44
2022-10-08T15:40:07.741Z,100646.59
2022-10-08T15:42:35.910Z,100641.31
2022-10-08T15:45:05.869Z,100639.75
2022-10-08T15:47:34.059Z,100643.50
2022-10-08T15:50:02.289Z,100652.47
2022-10-08T15:52:30.540Z,100650.88
2022-10-08T15:54:58.610Z,100640.53
2022-10-08T15:57:26.889Z,100650.34
2022-10-08T15:59:55.670Z,100645.38
2022-10-08T16:02:25.414Z,100648.00
2022-10-08T16:04:54.193Z,100651.59
2022-10-08T16:07:22.281Z,100650.78
2022-10-08T16:09:50.770Z,100645.03
2022-10-08T16:12:18.881Z,100649.75
2022-10-08T16:14:46.960Z,100655.44
2022-10-08T16:17:15.085Z,100644.56
2022-10-08T16:19:44.599Z,100648.38
2022-10-08T16:22:12.669Z,100651.44
2022-10-08T16:24:40.978Z,100645.84
2022-10-08T16:27:09.110Z,100648.00
2022-10-08T16:29:37.189Z,100640.56
2022-10-08T16:32:05.340Z,100643.56
2022-10-08T16:34:33.503Z,100639.47
2022-10-08T16:37:04.895Z,100644.28
2022-10-08T16:39:33.050Z,100651.66
2022-10-08T16:42:01.190Z,100652.22
2022-10-08T16:44:29.378Z,100649.22
2022-10-08T16:46:57.471Z,100654.09
2022-10-08T16:49:27.095Z,100645.78
2022-10-08T16:51:58.001Z,100648.75
2022-10-08T16:54:28.799Z,100646.50
2022-10-08T16:56:57.700Z,100656.50
2022-10-08T16:59:27.700Z,100643.69
2022-10-08T17:01:58.694Z,100648.34
2022-10-08T17:04:28.849Z,100650.41
2022-10-08T17:06:57.011Z,100645.34
2022-10-08T17:09:25.655Z,100657.97
2022-10-08T17:11:55.140Z,100658.25
2022-10-08T17:14:23.579Z,100654.97
2022-10-08T17:16:51.812Z,100658.59
2022-10-08T17:19:20.300Z,100662.28
2022-10-08T17:21:48.371Z,100659.06
2022-10-08T17:24:16.544Z,100660.03
2022-10-08T17:26:45.870Z,100672.44
2022-10-08T17:29:15.409Z,100671.72
2022-10-08T17:31:43.646Z,100667.47
2022-10-08T17:34:12.467Z,100677.25
2022-10-08T17:36:43.884Z,100677.38
2022-10-08T17:39:13.936Z,100672.31
2022-10-08T17:41:43.779Z,100675.91
2022-10-08T17:44:12.413Z,100677.72
2022-10-08T17:46:45.619Z,100676.72
2022-10-08T17:49:14.470Z,100676.56
2022-10-08T17:51:42.809Z,100679.06
2022-10-08T17:54:13.860Z,100673.75
2022-10-08T17:56:42.196Z,100676.44
2022-10-08T17:59:12.889Z,100677.38
2022-10-08T18:01:45.020Z,100675.78
2022-10-08T18:04:16.692Z,100673.25
2022-10-08T18:06:47.119Z,100684.69
2022-10-08T18:09:18.677Z,100681.97
2022-10-08T18:11:48.538Z,100681.03
2022-10-08T18:14:17.479Z,100684.66
2022-10-08T18:16:48.492Z,100690.94
2022-10-08T18:19:17.867Z,100684.91
2022-10-08T18:21:46.399Z,100682.31
2022-10-08T18:24:14.658Z,100691.06
2022-10-08T18:26:43.420Z,100687.53
2022-10-08T18:29:13.689Z,100689.22
2022-10-08T18:31:44.065Z,100697.09
2022-10-08T18:34:17.089Z,100690.13
2022-10-08T18:36:46.032Z,100692.00
2022-10-08T18:39:15.810Z,100687.78
2022-10-08T18:41:45.639Z,100697.44
2022-10-08T18:44:15.579Z,100692.25
2022-10-08T18:46:45.025Z,100695.75
2022-10-08T18:49:16.602Z,100702.84
2022-10-08T18:51:45.159Z,100695.09
2022-10-08T18:54:13.410Z,100704.72
2022-10-08T18:56:41.869Z,100707.31
2022-10-08T18:59:13.146Z,100700.31
2022-10-08T19:01:43.717Z,100702.84
2022-10-08T19:04:15.723Z,100708.09
2022-10-08T19:06:45.279Z,100709.91
2022-10-08T19:09:14.004Z,100702.94
2022-10-08T19:11:45.300Z,100709.97
2022-10-08T19:14:15.608Z,100708.28
2022-10-08T19:16:44.549Z,100703.03
2022-10-08T19:19:17.250Z,100699.59
2022-10-08T19:21:45.820Z,100700.63
2022-10-08T19:24:16.453Z,100697.28
2022-10-08T19:26:45.856Z,100694.75
2022-10-08T19:29:16.541Z,100705.25
2022-10-08T19:31:47.585Z,100711.28
2022-10-08T19:34:19.684Z,100703.28
2022-10-08T19:36:48.526Z,100704.09
2022-10-08T19:39:18.999Z,100701.50
2022-10-08T19:41:47.260Z,100701.50
2022-10-08T19:44:16.562Z,100696.31
2022-10-08T19:46:45.260Z,100692.88
2022-10-08T19:49:13.731Z,100698.09
2022-10-08T19:51:44.045Z,100687.59
2022-10-08T19:54:12.569Z,100692.88
2022-10-08T19:56:41.259Z,100696.38
2022-10-08T19:59:11.474Z,100699.91
2022-10-08T20:01:41.391Z,100691.13
2022-10-08T20:04:10.919Z,100693.69
2022-10-08T20:06:41.497Z,100690.16
2022-10-08T20:09:13.267Z,100701.50
2022-10-08T20:11:42.392Z,100693.69
2022-10-08T20:14:10.614Z,100690.28
2022-10-08T20:16:41.217Z,100691.25
2022-10-08T20:19:15.319Z,100686.97
2022-10-08T20:21:43.609Z,100693.25
2022-10-08T20:24:13.050Z,100684.59
2022-10-08T20:26:42.739Z,100692.44
2022-10-08T20:29:13.143Z,100692.44
2022-10-08T20:31:43.412Z,100677.56
2022-10-08T20:34:14.177Z,100680.13
2022-10-08T20:36:42.279Z,100681.06
2022-10-08T20:39:13.859Z,100685.50
2022-10-08T20:41:42.267Z,100693.34
2022-10-08T20:44:10.719Z,100689.88
2022-10-08T20:46:39.726Z,100692.59
2022-10-08T20:49:08.202Z,100697.00
2022-10-08T20:51:38.958Z,100688.31
2022-10-08T20:54:09.109Z,100683.13
2022-10-08T20:56:40.620Z,100688.38
2022-10-08T20:59:09.188Z,100685.81
2022-10-08T21:01:39.273Z,100684.06
2022-10-08T21:04:08.814Z,100682.38
2022-10-08T21:06:39.039Z,100675.47
2022-10-08T21:09:07.805Z,100674.63
2022-10-08T21:11:38.764Z,100673.78
2022-10-08T21:14:08.985Z,100675.53
2022-10-08T21:16:39.622Z,100679.06
2022-10-08T21:19:10.992Z,100679.06
2022-10-08T21:21:39.577Z,100666.00
2022-10-08T21:24:08.173Z,100677.38
2022-10-08T21:26:39.941Z,100673.09
2022-10-08T21:29:10.147Z,100673.16
2022-10-08T21:31:40.597Z,100669.78
2022-10-08T21:34:09.131Z,100669.88
2022-10-08T21:36:39.353Z,100676.06
2022-10-08T21:39:09.161Z,100670.84
2022-10-08T21:41:39.521Z,100658.59
2022-10-08T21:44:09.233Z,100669.09
2022-10-08T21:46:39.531Z,100671.69
2022-10-08T21:49:09.232Z,100671.78
2022-10-08T21:51:37.931Z,100664.81
2022-10-08T21:54:07.593Z,100670.91
2022-10-08T21:56:37.696Z,100668.56
2022-10-08T21:59:08.801Z,100668.94
2022-10-08T22:01:39.398Z,100663.97
2022-10-08T22:04:11.240Z,100668.50
2022-10-08T22:06:41.504Z,100656.38
2022-10-08T22:09:12.522Z,100652.03
2022-10-08T22:11:41.271Z,100649.44
2022-10-08T22:14:10.821Z,100645.22
2022-10-08T22:16:39.246Z,100650.75
2022-10-08T22:19:07.645Z,100653.56
2022-10-08T22:21:37.941Z,100649.28
2022-10-08T22:24:06.701Z,100647.56
2022-10-08T22:26:37.103Z,100644.16
2022-10-08T22:29:06.512Z,100645.03
2022-10-08T22:31:36.121Z,100639.78
2022-10-08T22:34:04.650Z,100640.59
2022-10-08T22:36:34.653Z,100629.25
2022-10-08T22:39:02.873Z,100638.88
2022-10-08T22:41:33.295Z,100636.34
2022-10-08T22:44:02.721Z,100630.44
2022-10-08T22:46:32.841Z,100634.00
2022-10-08T22:49:04.941Z,100623.66
2022-10-08T22:51:33.180Z,100621.97
2022-10-08T22:54:02.154Z,100620.22
2022-10-08T22:56:32.231Z,100608.13
2022-10-08T22:59:01.161Z,100611.69
2022-10-08T23:01:31.042Z,100612.56
2022-10-08T23:03:59.512Z,100613.47
2022-10-08T23:06:31.322Z,100606.50
2022-10-08T23:09:01.184Z,100609.09
2022-10-08T23:11:31.679Z,100604.69
2022-10-08T23:14:01.690Z,100594.19
2022-10-08T23:16:32.178Z,100593.25
2022-10-08T23:19:01.941Z,100600.28
2022-10-08T23:21:31.712Z,100597.75
2022-10-08T23:24:00.303Z,100597.78
2022-10-08T23:26:29.317Z,100599.53
2022-10-08T23:28:59.541Z,100592.59
2022-10-08T23:31:30.065Z,100599.50
2022-10-08T23:33:58.873Z,100585.50
2022-10-08T23:36:29.702Z,100576.75
2022-10-08T23:38:59.641Z,100585.38
2022-10-08T23:41:29.047Z,100583.63
2022-10-08T23:43:58.200Z,100574.94
2022-10-08T23:46:28.521Z,100580.13
2022-10-08T23:48:57.519Z,100576.69
2022-10-08T23:51:28.042Z,100574.13
2022-10-08T23:53:56.439Z,100568.97
2022-10-08T23:56:26.180Z,100565.53
2022-10-08T23:58:54.441Z,100561.19
